Terminal Aerodrome Forecast
Issued by NWS

Home | Current Version | Previous Version | Text Only | Print | Product List | Glossary On
Versions: 1 2 3 4 5 6 7 8 9 10 11 12 13 14 15 16 17 18 19
000
FTUS46 KPDT 260648 AAA
TAFYKM
TAF AMD
KYKM 260648Z 2607/2706 32013G22KT P6SM SCT080
     FM262000 31007KT P6SM VCSH SCT050 BKN080
     FM270400 29006KT P6SM SCT060=

USA.gov is the U.S. government's official web portal to all federal, state and local government web resources and services.